203-й пикет

Карта отелей и гостиниц, располагающихся рядом с аэропортом 203-й пикет :

203-й пикет Республика Коми 64° 19' 50.9988" N, 57° 22' 19.3188" E
203-й пикет Республика Коми 64° 19' 50.9988" N, 57° 22' 19.3188" E
Код аэродрома ИКАО
UUXD
Код аэродрома RU
УУЬД
Координаты
N64.33083° E057.37203°
Превышение над уровнем моря
110
Основная полоса
08/26
Курс магнитный
081,4/261,4
Длина основной ВПП
18
Ширина основной ВПП
18
Покрытие основной ВПП
Твёрдое (бетон)
Освещение ВПП
Нет
Тип: 
Вертодром
Класс аэродрома: 
Принадлежность: 
ГА
Статус: 
Действующий
Сайт: 
E-mail аэродрома: 
gazavia, gsp@mail.ru
Страна: 
Россия
Регион: 
Республика Коми
Город: 
Дополнительная информация: 
Оператор: ОАО «Севергазпром» Ухтинский филиал ООО Авиапредприятие «Газпромавиа». Взлет и посадка в секторе Ам 040°-140° с ПП2 запрещены.

Найти трансфер

С помощью этой формы Вы можете найти трансфер из аэропорта 203-й пикет в город, аэропорт или вокзал:

Карта места

Javascript is required to view this map.

Погода в аэропортах:

Авиационная погода в Куусамо

Регион: 
Погода METAR: 
EFKS 130920Z AUTO 13004KT 0450 R12/0650N FG VV002 01/01 Q1011
Время наблюдения
2021-04-13T09:20:00Z
Температура C
1.0
Точка росы
1.0
Направление ветра
130
Скорость ветра (узлы)
4
Метео видимость
0.28
Явления погоды
FG
Условия полета
LIFR

Авиационная погода в Полярном

Регион: 
Погода METAR: 
UERP 130900Z 18003G08MPS 2300 -SHSN BKN014CB OVC100 M02/M04 Q0995 R17/492040 NOSIG RMK QFE702
Время наблюдения
2021-04-13T09:00:00Z
Температура C
-2.0
Точка росы
-4.0
Направление ветра
180
Скорость ветра (узлы)
6
Метео видимость
1.43
Явления погоды
-SHSN
Условия полета
IFR
Аэропорт подробнее: 

Авиационная погода в Братске

Регион: 
Погода METAR: 
UIBB 130900Z 29010G16MPS 250V310 1400 0750SE R30/0750D +SHSN SCT005 BKN015CB 00/M01 Q1011 R30/290250 NOSIG RMK QBB150 MT OBSC QFE715/0954
Время наблюдения
2021-04-13T09:00:00Z
Температура C
0.0
Точка росы
-1.0
Направление ветра
290
Скорость ветра (узлы)
19
Метео видимость
0.87
Явления погоды
+SHSN
Условия полета
LIFR
Аэропорт подробнее: 

Авиационная погода в Елизово

Регион: 
Погода METAR: 
UHPP 130900Z 31001MPS 9000 -SHSNRA FEW007 BKN040CB 00/00 Q1015 R16R/290155 NOSIG RMK QFE758/1011
Время наблюдения
2021-04-13T09:00:00Z
Температура C
0.0
Точка росы
0.0
Направление ветра
310
Скорость ветра (узлы)
2
Метео видимость
5.59
Явления погоды
-SHSN -SHRA
Условия полета
VFR
Аэропорт подробнее: